createdAt,value
2018-05-15T00:01:23.507Z,50.50
2018-05-15T00:03:51.029Z,51.10
2018-05-15T00:06:18.481Z,51.40
2018-05-15T00:08:45.955Z,51.20
2018-05-15T00:11:13.395Z,51.40
2018-05-15T00:13:40.857Z,51.50
2018-05-15T00:16:08.321Z,51.60
2018-05-15T00:18:36.075Z,52.00
2018-05-15T00:21:04.019Z,52.00
2018-05-15T00:23:32.843Z,52.40
2018-05-15T00:26:03.424Z,52.20
2018-05-15T00:28:32.838Z,52.20
2018-05-15T00:31:00.474Z,52.10
2018-05-15T00:33:28.551Z,52.10
2018-05-15T00:35:55.988Z,52.50
2018-05-15T00:38:23.445Z,52.60
2018-05-15T00:40:50.937Z,52.50
2018-05-15T00:43:19.142Z,52.60
2018-05-15T00:45:46.621Z,52.50
2018-05-15T00:48:14.058Z,52.80
2018-05-15T00:50:41.522Z,52.80
2018-05-15T00:53:09.726Z,52.80
2018-05-15T00:55:43.069Z,52.80
2018-05-15T00:58:11.275Z,52.60
2018-05-15T01:00:38.738Z,52.60
2018-05-15T01:03:06.191Z,52.80
2018-05-15T01:05:33.652Z,52.90
2018-05-15T01:08:01.090Z,52.50
2018-05-15T01:10:28.549Z,52.20
2018-05-15T01:12:56.005Z,52.60
2018-05-15T01:15:23.462Z,51.90
2018-05-15T01:17:50.949Z,51.90
2018-05-15T01:20:19.191Z,51.80
2018-05-15T01:22:46.644Z,51.50
2018-05-15T01:25:14.113Z,52.00
2018-05-15T01:27:41.568Z,52.10
2018-05-15T01:30:09.031Z,51.90
2018-05-15T01:32:36.494Z,51.90
2018-05-15T01:35:03.942Z,51.80
2018-05-15T01:37:31.417Z,51.70
2018-05-15T01:39:58.865Z,51.70
2018-05-15T01:42:26.322Z,51.80
2018-05-15T01:44:53.775Z,51.70
2018-05-15T01:47:21.226Z,51.60
2018-05-15T01:49:48.683Z,51.50
2018-05-15T01:52:16.138Z,52.10
2018-05-15T01:54:43.615Z,52.60
2018-05-15T01:57:11.056Z,52.40
2018-05-15T01:59:38.508Z,52.20
2018-05-15T02:02:05.986Z,52.20
2018-05-15T02:04:33.445Z,52.20
2018-05-15T02:07:00.898Z,52.20
2018-05-15T02:09:28.357Z,52.00
2018-05-15T02:11:56.576Z,52.40
2018-05-15T02:14:24.789Z,52.10
2018-05-15T02:16:52.246Z,52.00
2018-05-15T02:19:19.703Z,52.10
2018-05-15T02:21:47.161Z,51.70
2018-05-15T02:24:14.618Z,51.70
2018-05-15T02:26:42.109Z,52.20
2018-05-15T02:29:09.546Z,51.80
2018-05-15T02:31:37.006Z,52.00
2018-05-15T02:34:04.465Z,52.10
2018-05-15T02:36:32.663Z,52.10
2018-05-15T02:39:00.126Z,52.10
2018-05-15T02:41:27.578Z,52.00
2018-05-15T02:43:55.111Z,51.70
2018-05-15T02:46:22.568Z,51.80
2018-05-15T02:48:50.026Z,52.30
2018-05-15T02:51:17.488Z,51.90
2018-05-15T02:53:44.945Z,52.30
2018-05-15T02:56:12.393Z,52.10
2018-05-15T02:58:39.845Z,52.30
2018-05-15T03:01:07.302Z,52.00
2018-05-15T03:03:34.778Z,52.40
2018-05-15T03:06:02.232Z,52.90
2018-05-15T03:08:29.729Z,52.50
2018-05-15T03:10:57.962Z,53.20
2018-05-15T03:13:26.206Z,53.10
2018-05-15T03:15:53.718Z,53.00
2018-05-15T03:18:21.941Z,53.40
2018-05-15T03:20:49.389Z,53.30
2018-05-15T03:23:16.895Z,53.60
2018-05-15T03:25:44.289Z,53.90
2018-05-15T03:28:11.749Z,54.10
2018-05-15T03:30:39.984Z,54.20
2018-05-15T03:33:07.416Z,54.20
2018-05-15T03:35:34.886Z,54.10
2018-05-15T03:38:03.842Z,54.60
2018-05-15T03:40:31.307Z,54.40
2018-05-15T03:42:58.746Z,54.60
2018-05-15T03:45:26.204Z,54.90
2018-05-15T03:47:55.060Z,54.80
2018-05-15T03:50:22.524Z,55.20
2018-05-15T03:52:50.733Z,55.60
2018-05-15T03:55:18.192Z,55.50
2018-05-15T03:57:45.638Z,55.50
2018-05-15T04:03:24.586Z,55.40
2018-05-15T04:06:03.941Z,55.60
2018-05-15T04:08:31.396Z,55.80
2018-05-15T04:10:58.915Z,55.90
2018-05-15T04:13:26.304Z,56.00
2018-05-15T04:15:53.757Z,56.20
2018-05-15T04:18:21.186Z,56.30
2018-05-15T04:20:49.418Z,55.90
2018-05-15T04:23:16.857Z,55.90
2018-05-15T04:25:44.314Z,56.00
2018-05-15T04:28:11.762Z,56.00
2018-05-15T04:30:39.197Z,56.10
2018-05-15T04:33:06.654Z,56.10
2018-05-15T04:35:34.094Z,56.20
2018-05-15T04:38:01.558Z,56.10
2018-05-15T04:40:29.799Z,56.50
2018-05-15T04:42:58.010Z,56.20
2018-05-15T04:45:26.216Z,56.60
2018-05-15T04:47:53.702Z,56.60
2018-05-15T04:50:22.105Z,56.00
2018-05-15T04:52:49.557Z,56.00
2018-05-15T04:55:16.992Z,56.00
2018-05-15T04:57:44.442Z,56.40
2018-05-15T05:00:11.894Z,56.00
2018-05-15T05:02:39.349Z,55.90
2018-05-15T05:05:07.810Z,56.00
2018-05-15T05:07:35.267Z,56.10
2018-05-15T05:10:02.698Z,56.00
2018-05-15T05:12:30.926Z,55.50
2018-05-15T05:14:58.389Z,55.40
2018-05-15T05:17:25.854Z,55.10
2018-05-15T05:19:53.313Z,54.70
2018-05-15T05:22:20.790Z,54.60
2018-05-15T05:24:48.221Z,54.60
2018-05-15T05:27:15.693Z,54.80
2018-05-15T05:29:43.130Z,54.60
2018-05-15T05:32:10.578Z,53.80
2018-05-15T05:34:38.023Z,54.10
2018-05-15T05:37:06.256Z,53.90
2018-05-15T05:39:34.499Z,53.70
2018-05-15T05:42:01.957Z,53.60
2018-05-15T05:44:29.408Z,53.40
2018-05-15T05:46:57.740Z,52.30
2018-05-15T05:49:25.181Z,52.30
2018-05-15T05:51:53.574Z,52.40
2018-05-15T05:54:21.374Z,52.30
2018-05-15T05:56:49.602Z,52.60
2018-05-15T05:59:17.802Z,52.40
2018-05-15T06:01:45.252Z,52.20
2018-05-15T06:04:12.918Z,52.00
2018-05-15T06:06:40.388Z,51.50
2018-05-15T06:09:07.829Z,51.40
2018-05-15T06:11:35.338Z,51.60
2018-05-15T06:14:02.832Z,51.60
2018-05-15T06:16:30.325Z,52.00
2018-05-15T06:18:57.782Z,52.50
2018-05-15T06:21:25.241Z,51.90
2018-05-15T06:23:52.697Z,51.70
2018-05-15T06:26:20.154Z,51.30
2018-05-15T06:28:47.611Z,52.10
2018-05-15T06:31:15.091Z,51.90
2018-05-15T06:33:42.549Z,51.20
2018-05-15T06:36:10.018Z,51.30
2018-05-15T06:38:38.257Z,51.80
2018-05-15T06:41:05.747Z,51.00
2018-05-15T06:43:33.210Z,51.60
2018-05-15T06:46:00.662Z,50.30
2018-05-15T06:48:28.117Z,50.80
2018-05-15T06:50:55.599Z,51.70
2018-05-15T06:53:23.812Z,51.60
2018-05-15T06:55:51.253Z,51.60
2018-05-15T06:58:18.710Z,51.10
2018-05-15T07:00:46.147Z,51.00
2018-05-15T07:03:13.601Z,50.80
2018-05-15T07:05:41.050Z,50.40
2018-05-15T07:08:09.262Z,51.30
2018-05-15T07:10:36.722Z,51.30
2018-05-15T07:13:04.173Z,51.10
2018-05-15T07:15:31.618Z,51.00
2018-05-15T07:17:59.074Z,51.10
2018-05-15T07:20:26.510Z,51.20
2018-05-15T07:22:54.743Z,50.90
2018-05-15T07:25:22.176Z,50.90
2018-05-15T07:27:49.619Z,50.60
2018-05-15T07:30:17.072Z,50.70
2018-05-15T07:32:44.521Z,50.40
2018-05-15T07:35:11.953Z,50.30
2018-05-15T07:37:40.187Z,49.20
2018-05-15T07:40:07.642Z,49.20
2018-05-15T07:42:35.093Z,49.60
2018-05-15T07:45:02.542Z,49.10
2018-05-15T07:47:29.992Z,48.80
2018-05-15T07:49:57.437Z,48.80
2018-05-15T07:52:24.878Z,48.80
2018-05-15T07:54:53.081Z,48.70
2018-05-15T07:57:20.526Z,48.70
2018-05-15T07:59:47.963Z,47.70
2018-05-15T08:02:16.167Z,47.60
2018-05-15T08:04:43.745Z,47.60
2018-05-15T08:07:11.178Z,47.50
2018-05-15T08:09:38.625Z,46.90
2018-05-15T08:12:06.944Z,46.00
2018-05-15T08:14:34.408Z,45.90
2018-05-15T08:17:01.848Z,46.40
2018-05-15T08:19:29.288Z,45.60
2018-05-15T08:21:56.733Z,45.90
2018-05-15T08:24:24.190Z,45.80
2018-05-15T08:26:51.627Z,45.30
2018-05-15T08:29:19.845Z,43.80
2018-05-15T08:31:47.270Z,43.80
2018-05-15T08:34:14.733Z,44.10
2018-05-15T08:36:42.186Z,44.10
2018-05-15T08:39:09.683Z,43.20
2018-05-15T08:41:37.105Z,42.70
2018-05-15T08:44:04.548Z,42.60
2018-05-15T08:46:32.752Z,41.80
2018-05-15T08:49:00.205Z,41.80
2018-05-15T08:51:27.693Z,42.40
2018-05-15T08:53:55.106Z,41.90
2018-05-15T08:56:22.551Z,40.40
2018-05-15T08:58:50.002Z,40.40
2018-05-15T09:01:18.195Z,39.70
2018-05-15T09:03:45.667Z,39.70
2018-05-15T09:06:13.110Z,39.90
2018-05-15T09:08:40.578Z,39.20
2018-05-15T09:11:08.039Z,40.10
2018-05-15T09:13:35.482Z,40.40
2018-05-15T09:16:02.954Z,39.90
2018-05-15T09:18:30.393Z,39.00
2018-05-15T09:20:57.871Z,39.90
2018-05-15T09:23:25.314Z,38.30
2018-05-15T09:25:52.756Z,38.60
2018-05-15T09:28:20.236Z,38.40
2018-05-15T09:30:47.698Z,38.80
2018-05-15T09:33:15.139Z,38.80
2018-05-15T09:35:42.589Z,38.80
2018-05-15T09:38:10.053Z,38.80
2018-05-15T09:40:37.512Z,38.40
2018-05-15T09:43:04.955Z,39.80
2018-05-15T09:45:32.446Z,39.50
2018-05-15T09:47:59.889Z,38.20
2018-05-15T09:50:27.353Z,37.90
2018-05-15T09:52:54.790Z,38.50
2018-05-15T09:55:22.246Z,38.80
2018-05-15T09:57:49.708Z,38.80
2018-05-15T10:03:10.094Z,38.60
2018-05-15T10:05:38.320Z,38.80
2018-05-15T10:08:05.859Z,38.70
2018-05-15T10:10:33.221Z,38.60
2018-05-15T10:13:00.662Z,38.70
2018-05-15T10:15:28.154Z,38.60
2018-05-15T10:17:55.595Z,39.00
2018-05-15T10:20:23.060Z,38.40
2018-05-15T10:22:50.515Z,38.10
2018-05-15T10:25:17.958Z,38.10
2018-05-15T10:27:45.414Z,37.00
2018-05-15T10:30:12.876Z,36.40
2018-05-15T10:32:40.355Z,35.70
2018-05-15T10:35:07.810Z,35.80
2018-05-15T10:37:36.000Z,35.40
2018-05-15T10:40:03.506Z,35.40
2018-05-15T10:42:30.950Z,35.40
2018-05-15T10:44:58.405Z,35.50
2018-05-15T10:47:25.871Z,35.90
2018-05-15T10:49:53.322Z,35.30
2018-05-15T10:52:20.797Z,36.40
2018-05-15T10:54:48.250Z,35.50
2018-05-15T10:57:15.698Z,36.60
2018-05-15T10:59:43.149Z,36.70
2018-05-15T11:02:10.625Z,34.00
2018-05-15T11:04:38.074Z,36.30
2018-05-15T11:07:05.521Z,35.90
2018-05-15T11:09:32.992Z,35.00
2018-05-15T11:12:00.413Z,34.90
2018-05-15T11:14:28.624Z,33.30
2018-05-15T11:16:56.086Z,33.80
2018-05-15T11:19:35.436Z,34.50
2018-05-15T11:22:14.882Z,34.40
2018-05-15T11:24:50.054Z,36.00
2018-05-15T11:27:18.256Z,36.90
2018-05-15T11:29:45.733Z,35.90
2018-05-15T11:32:13.171Z,36.00
2018-05-15T11:34:40.629Z,35.50
2018-05-15T11:37:08.089Z,35.80
2018-05-15T11:39:35.543Z,35.10
2018-05-15T11:42:03.014Z,35.90
2018-05-15T11:44:30.474Z,35.50
2018-05-15T11:46:57.929Z,34.90
2018-05-15T11:49:26.274Z,33.10
2018-05-15T11:51:53.513Z,32.90
2018-05-15T11:54:20.350Z,33.20
2018-05-15T11:56:47.811Z,33.10
2018-05-15T11:59:15.302Z,32.30
2018-05-15T12:01:42.760Z,32.30
2018-05-15T12:04:10.215Z,32.60
2018-05-15T12:06:37.663Z,32.60
2018-05-15T12:09:06.102Z,33.50
2018-05-15T12:11:33.584Z,33.00
2018-05-15T12:14:01.790Z,31.90
2018-05-15T12:16:29.271Z,31.80
2018-05-15T12:18:56.732Z,33.50
2018-05-15T12:21:24.194Z,33.00
2018-05-15T12:23:51.635Z,32.70
2018-05-15T12:26:19.101Z,31.40
2018-05-15T12:28:46.551Z,31.40
2018-05-15T12:31:14.018Z,31.10
2018-05-15T12:33:42.220Z,29.40
2018-05-15T12:36:10.443Z,29.30
2018-05-15T12:38:37.881Z,29.30
2018-05-15T12:41:05.329Z,30.20
2018-05-15T12:43:32.786Z,30.60
2018-05-15T12:46:00.231Z,30.80
2018-05-15T12:48:28.457Z,30.20
2018-05-15T12:50:55.887Z,30.00
2018-05-15T12:53:23.322Z,30.00
2018-05-15T12:55:51.551Z,30.80
2018-05-15T12:58:19.003Z,30.80
2018-05-15T13:00:46.459Z,31.30
2018-05-15T13:03:13.945Z,30.20
2018-05-15T13:05:41.399Z,29.50
2018-05-15T13:08:08.831Z,29.50
2018-05-15T13:10:36.254Z,30.40
2018-05-15T13:13:03.702Z,30.80
2018-05-15T13:15:31.146Z,30.90
2018-05-15T13:17:59.357Z,30.50
2018-05-15T13:20:26.807Z,30.50
2018-05-15T13:22:54.276Z,30.70
2018-05-15T13:25:21.718Z,31.40
2018-05-15T13:27:49.168Z,31.80
2018-05-15T13:30:16.601Z,32.20
2018-05-15T13:32:44.814Z,29.80
2018-05-15T13:35:12.272Z,29.70
2018-05-15T13:37:39.709Z,30.20
2018-05-15T13:40:07.152Z,31.30
2018-05-15T13:42:35.406Z,31.40
2018-05-15T13:45:02.849Z,31.30
2018-05-15T13:47:30.329Z,30.30
2018-05-15T13:49:58.559Z,29.60
2018-05-15T13:52:26.033Z,29.50
2018-05-15T13:54:53.484Z,29.20
2018-05-15T13:57:20.939Z,29.10
2018-05-15T13:59:49.150Z,29.00
2018-05-15T14:02:17.407Z,29.10
2018-05-15T14:04:44.857Z,29.10
2018-05-15T14:07:12.310Z,28.60
2018-05-15T14:09:39.766Z,29.70
2018-05-15T14:12:08.042Z,29.80
2018-05-15T14:14:37.000Z,29.80
2018-05-15T14:17:04.473Z,29.50
2018-05-15T14:19:31.935Z,28.80
2018-05-15T14:21:59.382Z,29.10
2018-05-15T14:24:26.833Z,28.60
2018-05-15T14:26:54.281Z,29.70
2018-05-15T14:29:21.717Z,29.20
2018-05-15T14:31:49.167Z,29.00
2018-05-15T14:34:17.374Z,29.10
2018-05-15T14:36:44.827Z,29.00
2018-05-15T14:39:12.266Z,29.30
2018-05-15T14:41:51.673Z,28.60
2018-05-15T14:44:19.122Z,28.00
2018-05-15T14:46:46.572Z,27.40
2018-05-15T14:49:14.014Z,27.40
2018-05-15T14:51:42.245Z,27.00
2018-05-15T14:54:09.710Z,27.00
2018-05-15T14:56:37.155Z,28.00
2018-05-15T14:59:04.626Z,28.10
2018-05-15T15:01:32.089Z,28.10
2018-05-15T15:03:59.550Z,27.70
2018-05-15T15:06:26.986Z,28.10
2018-05-15T15:08:54.446Z,27.60
2018-05-15T15:11:21.925Z,28.20
2018-05-15T15:13:49.374Z,28.90
2018-05-15T15:16:16.819Z,28.90
2018-05-15T15:18:44.310Z,29.10
2018-05-15T15:21:11.761Z,29.30
2018-05-15T15:23:39.199Z,29.30
2018-05-15T15:26:06.653Z,29.30
2018-05-15T15:28:34.107Z,29.30
2018-05-15T15:31:01.566Z,29.20
2018-05-15T15:33:29.065Z,29.00
2018-05-15T15:35:56.489Z,28.70
2018-05-15T15:38:23.950Z,28.80
2018-05-15T15:40:51.437Z,29.40
2018-05-15T15:43:19.666Z,28.80
2018-05-15T15:45:47.123Z,28.80
2018-05-15T15:48:14.561Z,29.20
2018-05-15T15:50:42.894Z,28.20
2018-05-15T15:53:10.422Z,28.20
2018-05-15T15:55:37.840Z,29.20
2018-05-15T15:58:06.060Z,29.30
2018-05-15T16:00:33.512Z,29.30
2018-05-15T16:03:00.969Z,29.20
2018-05-15T16:05:28.444Z,28.60
2018-05-15T16:07:55.894Z,29.10
2018-05-15T16:10:23.350Z,29.10
2018-05-15T16:12:50.822Z,28.70
2018-05-15T16:15:18.345Z,28.30
2018-05-15T16:17:45.745Z,28.70
2018-05-15T16:20:13.193Z,28.30
2018-05-15T16:22:40.688Z,29.40
2018-05-15T16:25:08.907Z,28.90
2018-05-15T16:27:36.373Z,28.90
2018-05-15T16:30:03.819Z,29.80
2018-05-15T16:32:31.291Z,29.90
2018-05-15T16:34:58.745Z,30.10
2018-05-15T16:37:26.234Z,30.60
2018-05-15T16:39:53.694Z,31.00
2018-05-15T16:42:22.086Z,30.90
2018-05-15T16:44:49.517Z,31.10
2018-05-15T16:47:16.964Z,31.50
2018-05-15T16:49:44.440Z,32.10
2018-05-15T16:52:11.917Z,32.20
2018-05-15T16:54:40.189Z,32.60
2018-05-15T16:57:08.392Z,33.30
2018-05-15T16:59:35.922Z,32.90
2018-05-15T17:02:03.294Z,32.80
2018-05-15T17:04:30.777Z,33.10
2018-05-15T17:06:58.231Z,34.10
2018-05-15T17:09:25.692Z,31.70
2018-05-15T17:11:53.159Z,31.40
2018-05-15T17:14:20.605Z,32.50
2018-05-15T17:16:48.863Z,32.50
2018-05-15T17:19:16.322Z,33.40
2018-05-15T17:21:43.781Z,33.80
2018-05-15T17:24:11.242Z,34.10
2018-05-15T17:26:38.694Z,32.70
2018-05-15T17:29:06.159Z,33.30
2018-05-15T17:31:33.712Z,33.10
2018-05-15T17:34:01.061Z,32.70
2018-05-15T17:36:28.523Z,32.60
2018-05-15T17:38:55.968Z,32.60
2018-05-15T17:41:23.421Z,32.40
2018-05-15T17:43:50.846Z,32.00
2018-05-15T17:46:18.302Z,31.70
2018-05-15T17:48:45.739Z,32.20
2018-05-15T17:51:13.209Z,31.50
2018-05-15T17:53:40.657Z,32.00
2018-05-15T17:56:08.119Z,32.90
2018-05-15T17:58:35.566Z,32.60
2018-05-15T18:01:03.016Z,31.90
2018-05-15T18:03:30.470Z,31.80
2018-05-15T18:05:57.961Z,31.40
2018-05-15T18:08:25.534Z,32.00
2018-05-15T18:10:52.926Z,33.60
2018-05-15T18:13:20.385Z,32.80
2018-05-15T18:15:47.834Z,33.70
2018-05-15T18:18:15.284Z,33.30
2018-05-15T18:20:42.758Z,33.90
2018-05-15T18:23:10.209Z,34.60
2018-05-15T18:25:37.685Z,34.20
2018-05-15T18:28:05.151Z,34.90
2018-05-15T18:30:32.601Z,34.40
2018-05-15T18:33:00.118Z,35.80
2018-05-15T18:35:28.318Z,35.50
2018-05-15T18:37:55.874Z,35.50
2018-05-15T18:40:23.332Z,35.90
2018-05-15T18:42:50.841Z,36.70
2018-05-15T18:45:18.383Z,36.70
2018-05-15T18:47:45.744Z,37.60
2018-05-15T18:50:13.202Z,37.50
2018-05-15T18:52:40.641Z,37.70
2018-05-15T18:55:08.105Z,37.60
2018-05-15T18:57:35.584Z,37.80
2018-05-15T19:00:03.809Z,40.70
2018-05-15T19:02:31.265Z,40.20
2018-05-15T19:04:58.786Z,39.60
2018-05-15T19:07:27.022Z,39.60
2018-05-15T19:09:55.518Z,39.60
2018-05-15T19:12:22.974Z,40.00
2018-05-15T19:14:50.428Z,40.00
2018-05-15T19:17:17.960Z,40.50
2018-05-15T19:19:46.158Z,41.40
2018-05-15T19:22:13.634Z,41.30
2018-05-15T19:24:41.172Z,41.80
2018-05-15T19:27:10.117Z,41.40
2018-05-15T19:29:38.121Z,41.90
2018-05-15T19:32:11.307Z,42.10
2018-05-15T19:34:44.493Z,42.10
2018-05-15T19:37:12.971Z,42.30
2018-05-15T19:39:44.487Z,42.40
2018-05-15T19:42:11.840Z,42.60
2018-05-15T19:44:39.307Z,42.90
2018-05-15T19:47:06.765Z,42.90
2018-05-15T19:49:34.230Z,42.90
2018-05-15T19:52:01.817Z,42.80
2018-05-15T19:54:29.277Z,43.10
2018-05-15T19:56:56.821Z,42.60
2018-05-15T19:59:24.285Z,42.50
2018-05-15T20:01:51.816Z,42.90
2018-05-15T20:04:19.276Z,42.40
2018-05-15T20:06:46.706Z,42.40
2018-05-15T20:09:14.942Z,42.90
2018-05-15T20:11:42.385Z,42.80
2018-05-15T20:14:09.859Z,43.10
2018-05-15T20:16:37.345Z,43.10
2018-05-15T20:19:04.863Z,43.10
2018-05-15T20:21:32.323Z,43.30
2018-05-15T20:23:59.834Z,43.60
2018-05-15T20:26:27.284Z,43.90
2018-05-15T20:28:54.746Z,43.90
2018-05-15T20:31:22.970Z,44.30
2018-05-15T20:33:50.525Z,44.30
2018-05-15T20:36:17.990Z,44.50
2018-05-15T20:38:45.443Z,44.70
2018-05-15T20:41:12.905Z,44.70
2018-05-15T20:43:40.382Z,44.80
2018-05-15T20:46:07.854Z,44.80
2018-05-15T20:48:36.149Z,45.00
2018-05-15T20:51:03.605Z,45.00
2018-05-15T20:53:31.063Z,44.90
2018-05-15T20:55:58.516Z,45.20
2018-05-15T20:58:26.709Z,45.20
2018-05-15T21:00:54.171Z,45.10
2018-05-15T21:03:21.601Z,45.30
2018-05-15T21:05:49.059Z,45.40
2018-05-15T21:08:17.297Z,45.40
2018-05-15T21:10:45.225Z,45.30
2018-05-15T21:13:12.680Z,45.60
2018-05-15T21:15:40.264Z,45.60
2018-05-15T21:18:07.713Z,45.80
2018-05-15T21:20:35.158Z,45.90
2018-05-15T21:23:02.752Z,46.20
2018-05-15T21:25:30.212Z,46.30
2018-05-15T21:27:57.665Z,46.50
2018-05-15T21:30:25.119Z,46.80
2018-05-15T21:32:52.584Z,46.90
2018-05-15T21:35:20.109Z,47.30
2018-05-15T21:37:47.549Z,47.50
2018-05-15T21:40:14.986Z,47.60
2018-05-15T21:42:42.562Z,47.70
2018-05-15T21:45:10.021Z,47.90
2018-05-15T21:47:37.457Z,47.90
2018-05-15T21:50:05.656Z,48.20
2018-05-15T21:52:33.113Z,48.20
2018-05-15T21:55:00.545Z,48.10
2018-05-15T21:57:28.032Z,48.20
2018-05-15T21:59:55.458Z,48.40
2018-05-15T22:02:23.683Z,48.60
2018-05-15T22:04:51.145Z,48.60
2018-05-15T22:07:18.622Z,48.70
2018-05-15T22:09:46.073Z,48.80
2018-05-15T22:12:25.443Z,48.90
2018-05-15T22:15:06.322Z,49.80
2018-05-15T22:17:45.713Z,49.70
2018-05-15T22:20:24.972Z,49.90
2018-05-15T22:22:52.722Z,50.20
2018-05-15T22:25:21.103Z,50.10
2018-05-15T22:27:48.577Z,49.90
2018-05-15T22:30:16.782Z,49.90
2018-05-15T22:32:44.238Z,49.80
2018-05-15T22:35:11.692Z,50.20
2018-05-15T22:37:39.136Z,50.00
2018-05-15T22:40:06.606Z,50.30
2018-05-15T22:42:34.065Z,50.50
2018-05-15T22:45:01.553Z,50.70
2018-05-15T22:47:28.993Z,51.00
2018-05-15T22:49:56.441Z,51.50
2018-05-15T22:52:32.906Z,51.10
2018-05-15T23:00:46.165Z,51.40
2018-05-15T23:03:13.647Z,51.90
2018-05-15T23:05:41.175Z,51.40
2018-05-15T23:08:09.446Z,52.10
2018-05-15T23:10:37.695Z,52.40
2018-05-15T23:13:05.217Z,52.30
2018-05-15T23:15:32.823Z,52.00
2018-05-15T23:23:42.501Z,52.20
2018-05-15T23:26:09.970Z,52.30
2018-05-15T23:28:37.447Z,52.40
2018-05-15T23:31:04.927Z,53.30
2018-05-15T23:33:32.377Z,52.60
2018-05-15T23:35:59.846Z,52.90
2018-05-15T23:38:27.322Z,52.80
2018-05-15T23:40:55.579Z,53.10
2018-05-15T23:43:23.080Z,53.10
2018-05-15T23:45:50.546Z,53.00
2018-05-15T23:48:18.048Z,53.40
2018-05-15T23:50:45.539Z,53.50
2018-05-15T23:53:12.993Z,53.70
2018-05-15T23:55:40.465Z,54.10
2018-05-15T23:58:07.939Z,54.10
